createdAt,value
2023-02-27T00:02:09.230Z,98164.03
2023-02-27T00:04:38.016Z,98159.94
2023-02-27T00:07:07.258Z,98159.53
2023-02-27T00:09:36.023Z,98160.16
2023-02-27T00:12:04.659Z,98158.94
2023-02-27T00:14:32.783Z,98165.66
2023-02-27T00:17:02.756Z,98167.91
2023-02-27T00:19:31.322Z,98175.88
2023-02-27T00:21:59.450Z,98175.63
2023-02-27T00:24:27.905Z,98167.72
2023-02-27T00:26:56.488Z,98176.25
2023-02-27T00:29:24.935Z,98174.41
2023-02-27T00:31:53.646Z,98181.75
2023-02-27T00:34:24.019Z,98179.13
2023-02-27T00:36:52.214Z,98181.75
2023-02-27T00:39:20.350Z,98183.38
2023-02-27T00:41:49.073Z,98183.38
2023-02-27T00:44:17.320Z,98180.16
2023-02-27T00:46:45.482Z,98186.47
2023-02-27T00:49:14.219Z,98185.66
2023-02-27T00:51:43.597Z,98186.47
2023-02-27T00:54:11.594Z,98184.41
2023-02-27T00:56:41.608Z,98185.84
2023-02-27T00:59:10.132Z,98185.66
2023-02-27T01:01:38.434Z,98190.56
2023-02-27T01:04:07.251Z,98193.59
2023-02-27T01:06:35.390Z,98187.69
2023-02-27T01:09:05.527Z,98187.69
2023-02-27T01:11:34.405Z,98182.78
2023-02-27T01:14:03.182Z,98182.78
2023-02-27T01:16:31.671Z,98188.50
2023-02-27T01:19:00.370Z,98186.28
2023-02-27T01:21:29.669Z,98185.03
2023-02-27T01:23:58.087Z,98193.00
2023-02-27T01:26:28.312Z,98194.41
2023-02-27T01:28:56.591Z,98183.59
2023-02-27T01:31:24.947Z,98186.47
2023-02-27T01:33:54.008Z,98191.16
2023-02-27T01:36:22.715Z,98180.75
2023-02-27T01:38:51.065Z,98197.06
2023-02-27T01:41:19.855Z,98192.16
2023-02-27T01:44:01.229Z,98196.44
2023-02-27T01:46:30.487Z,98191.97
2023-02-27T01:49:01.624Z,98193.41
2023-02-27T01:51:35.224Z,98201.75
2023-02-27T01:54:07.293Z,98186.03
2023-02-27T01:56:36.260Z,98189.72
2023-02-27T01:59:11.113Z,98189.28
2023-02-27T02:01:40.397Z,98202.53
2023-02-27T02:04:13.965Z,98192.38
2023-02-27T02:06:48.399Z,98206.03
2023-02-27T02:09:19.029Z,98200.50
2023-02-27T02:11:47.040Z,98203.75
2023-02-27T02:14:17.011Z,98182.56
2023-02-27T02:17:12.314Z,98196.44
2023-02-27T02:20:13.989Z,98192.56
2023-02-27T02:23:17.190Z,98203.16
2023-02-27T02:26:31.042Z,98199.47
2023-02-27T02:29:34.569Z,98196.84
2023-02-27T02:32:40.131Z,98190.75
2023-02-27T02:35:45.738Z,98193.00
2023-02-27T02:38:50.372Z,98198.69
2023-02-27T02:41:29.299Z,98201.94
2023-02-27T02:44:06.578Z,98193.78
2023-02-27T02:46:45.644Z,98201.94
2023-02-27T02:49:23.730Z,98200.13
2023-02-27T02:52:01.770Z,98190.50
2023-02-27T02:54:38.364Z,98195.41
2023-02-27T02:57:13.209Z,98193.00
2023-02-27T02:59:47.260Z,98195.00
2023-02-27T03:02:19.692Z,98194.41
2023-02-27T03:04:55.709Z,98203.16
2023-02-27T03:07:31.799Z,98202.91
2023-02-27T03:10:06.260Z,98206.19
2023-02-27T03:12:40.771Z,98205.19
2023-02-27T03:15:17.755Z,98207.44
2023-02-27T03:17:52.245Z,98206.00
2023-02-27T03:20:28.532Z,98210.09
2023-02-27T03:23:01.113Z,98205.84
2023-02-27T03:25:30.605Z,98210.44
2023-02-27T03:28:05.345Z,98208.50
2023-02-27T03:30:39.066Z,98221.72
2023-02-27T03:33:14.494Z,98220.41
2023-02-27T03:35:51.256Z,98221.16
2023-02-27T03:38:26.048Z,98215.31
2023-02-27T03:41:07.600Z,98219.91
2023-02-27T03:43:46.797Z,98219.78
2023-02-27T03:46:19.879Z,98229.06
2023-02-27T03:48:49.189Z,98233.84
2023-02-27T03:51:21.295Z,98242.19
2023-02-27T03:53:53.372Z,98241.34
2023-02-27T03:56:26.174Z,98241.25
2023-02-27T03:58:57.870Z,98231.72
2023-02-27T04:01:27.242Z,98238.78
2023-02-27T04:04:02.834Z,98243.97
2023-02-27T04:06:50.917Z,98244.72
2023-02-27T04:09:28.673Z,98244.16
2023-02-27T04:12:17.579Z,98246.25
2023-02-27T04:14:58.909Z,98254.38
2023-02-27T04:17:31.634Z,98237.63
2023-02-27T04:20:22.073Z,98253.91
2023-02-27T04:22:56.792Z,98251.06
2023-02-27T04:25:43.056Z,98254.84
2023-02-27T04:28:18.842Z,98263.53
2023-02-27T04:30:59.734Z,98258.66
2023-02-27T04:33:38.513Z,98242.13
2023-02-27T04:36:12.936Z,98272.72
2023-02-27T04:38:45.580Z,98269.66
2023-02-27T04:41:18.193Z,98272.25
2023-02-27T04:43:48.006Z,98262.19
2023-02-27T04:46:22.270Z,98270.09
2023-02-27T04:48:55.589Z,98265.72
2023-02-27T04:51:29.119Z,98270.28
2023-02-27T04:54:02.004Z,98268.34
2023-02-27T04:56:35.448Z,98272.59
2023-02-27T04:59:11.590Z,98270.63
2023-02-27T05:01:45.643Z,98267.78
2023-02-27T05:04:20.469Z,98275.97
2023-02-27T05:06:50.556Z,98272.22
2023-02-27T05:09:25.792Z,98290.06
2023-02-27T05:11:58.118Z,98279.50
2023-02-27T05:14:33.484Z,98286.16
2023-02-27T05:17:08.643Z,98285.91
2023-02-27T05:19:41.977Z,98283.66
2023-02-27T05:22:21.895Z,98294.22
2023-02-27T05:24:58.560Z,98290.44
2023-02-27T05:27:35.130Z,98288.88
2023-02-27T05:30:07.973Z,98298.34
2023-02-27T05:32:43.823Z,98297.47
2023-02-27T05:35:21.829Z,98311.19
2023-02-27T05:37:55.094Z,98302.22
2023-02-27T05:40:26.957Z,98306.09
2023-02-27T05:43:02.271Z,98314.31
2023-02-27T05:45:35.037Z,98314.03
2023-02-27T05:48:08.394Z,98313.56
2023-02-27T05:50:39.450Z,98318.16
2023-02-27T05:53:15.331Z,98317.28
2023-02-27T05:55:47.477Z,98323.94
2023-02-27T05:58:21.939Z,98321.38
2023-02-27T06:00:55.173Z,98333.19
2023-02-27T06:03:26.452Z,98324.03
2023-02-27T06:05:57.434Z,98327.41
2023-02-27T06:08:26.222Z,98339.22
2023-02-27T06:10:55.197Z,98335.19
2023-02-27T06:13:24.595Z,98335.09
2023-02-27T06:15:53.125Z,98338.72
2023-02-27T06:18:21.792Z,98338.66
2023-02-27T06:20:52.947Z,98337.84
2023-02-27T06:23:21.293Z,98343.53
2023-02-27T06:25:50.302Z,98353.66
2023-02-27T06:28:19.384Z,98347.16
2023-02-27T06:30:49.167Z,98353.44
2023-02-27T06:33:18.307Z,98349.44
2023-02-27T06:35:50.257Z,98352.38
2023-02-27T06:38:19.949Z,98357.53
2023-02-27T06:40:48.452Z,98352.38
2023-02-27T06:43:18.183Z,98364.13
2023-02-27T06:45:46.670Z,98353.53
2023-02-27T06:48:14.939Z,98352.19
2023-02-27T06:50:43.925Z,98357.19
2023-02-27T06:53:12.240Z,98367.50
2023-02-27T06:55:42.245Z,98377.94
2023-02-27T06:58:11.252Z,98372.75
2023-02-27T07:00:39.591Z,98382.16
2023-02-27T07:03:07.875Z,98400.88
2023-02-27T07:05:36.680Z,98406.44
2023-02-27T07:08:05.162Z,98409.66
2023-02-27T07:10:33.358Z,98440.31
2023-02-27T07:13:03.965Z,98454.72
2023-02-27T07:15:33.728Z,98440.34
2023-02-27T07:18:02.134Z,98457.59
2023-02-27T07:20:30.732Z,98467.47
2023-02-27T07:22:59.208Z,98465.50
2023-02-27T07:25:28.218Z,98481.59
2023-02-27T07:27:56.850Z,98464.19
2023-02-27T07:30:26.794Z,98464.34
2023-02-27T07:32:55.294Z,98453.91
2023-02-27T07:35:24.131Z,98481.28
2023-02-27T07:37:52.407Z,98501.06
2023-02-27T07:40:22.357Z,98509.41
2023-02-27T07:42:53.225Z,98535.50
2023-02-27T07:45:23.644Z,98461.25
2023-02-27T07:47:53.162Z,98431.56
2023-02-27T07:50:24.906Z,98402.56
2023-02-27T07:52:54.266Z,98418.78
2023-02-27T07:55:22.523Z,98456.72
2023-02-27T07:57:53.283Z,98452.81
2023-02-27T08:00:22.380Z,98430.53
2023-02-27T08:02:52.661Z,98399.88
2023-02-27T08:05:21.830Z,98440.22
2023-02-27T08:07:51.188Z,98470.94
2023-02-27T08:10:23.202Z,98427.38
2023-02-27T08:12:55.378Z,98438.91
2023-02-27T08:15:24.948Z,98481.00
2023-02-27T08:17:57.155Z,98480.00
2023-02-27T08:20:25.805Z,98463.09
2023-02-27T08:22:54.061Z,98485.03
2023-02-27T08:25:23.175Z,98480.72
2023-02-27T08:27:53.191Z,98469.00
2023-02-27T08:30:21.436Z,98466.19
2023-02-27T08:32:51.508Z,98435.53
2023-02-27T08:35:21.800Z,98382.06
2023-02-27T08:37:50.485Z,98366.69
2023-02-27T08:40:19.225Z,98413.31
2023-02-27T08:42:49.313Z,98447.97
2023-02-27T08:45:17.994Z,98439.13
2023-02-27T08:47:46.604Z,98410.72
2023-02-27T08:50:15.750Z,98463.50
2023-02-27T08:52:45.085Z,98461.69
2023-02-27T08:55:13.671Z,98467.22
2023-02-27T08:57:42.511Z,98471.09
2023-02-27T09:00:14.741Z,98443.69
2023-02-27T09:02:45.429Z,98463.09
2023-02-27T09:05:13.646Z,98481.13
2023-02-27T09:07:52.651Z,98492.66
2023-02-27T09:10:22.683Z,98458.72
2023-02-27T09:12:51.389Z,98447.41
2023-02-27T09:15:20.993Z,98462.03
2023-02-27T09:17:50.961Z,98455.03
2023-02-27T09:20:19.255Z,98479.09
2023-02-27T09:22:48.727Z,98478.41
2023-02-27T09:25:18.067Z,98474.97
2023-02-27T09:27:48.395Z,98452.91
2023-02-27T09:30:16.748Z,98445.78
2023-02-27T09:32:45.799Z,98462.56
2023-02-27T09:35:15.836Z,98480.47
2023-02-27T09:37:44.953Z,98468.03
2023-02-27T09:40:22.237Z,98480.75
2023-02-27T09:42:53.729Z,98471.13
2023-02-27T09:45:25.574Z,98475.47
2023-02-27T09:47:57.938Z,98449.03
2023-02-27T09:50:49.846Z,98461.34
2023-02-27T09:53:27.386Z,98444.84
2023-02-27T09:56:02.082Z,98441.81
2023-02-27T09:58:44.634Z,98410.47
2023-02-27T10:01:20.603Z,98400.53
2023-02-27T10:04:22.329Z,98407.31
2023-02-27T10:06:55.035Z,98396.75
2023-02-27T10:09:34.034Z,98389.75
2023-02-27T10:12:15.821Z,98403.97
2023-02-27T10:14:47.056Z,98410.22
2023-02-27T10:17:23.112Z,98398.00
2023-02-27T10:19:53.578Z,98419.16
2023-02-27T10:22:30.577Z,98436.53
2023-02-27T10:25:08.953Z,98417.56
2023-02-27T10:27:46.332Z,98428.63
2023-02-27T10:30:29.469Z,98439.94
2023-02-27T10:33:09.103Z,98432.19
2023-02-27T10:35:40.409Z,98441.38
2023-02-27T10:38:14.789Z,98457.28
2023-02-27T10:40:44.471Z,98450.09
2023-02-27T10:43:19.368Z,98453.44
2023-02-27T10:45:47.684Z,98453.78
2023-02-27T10:48:16.805Z,98456.81
2023-02-27T10:50:47.955Z,98459.00
2023-02-27T10:53:22.036Z,98440.97
2023-02-27T10:56:00.803Z,98459.72
2023-02-27T10:58:34.917Z,98439.75
2023-02-27T11:01:06.311Z,98432.81
2023-02-27T11:03:38.229Z,98418.97
2023-02-27T11:06:11.788Z,98416.44
2023-02-27T11:08:40.694Z,98418.75
2023-02-27T11:11:12.569Z,98410.00
2023-02-27T11:13:43.998Z,98407.56
2023-02-27T11:16:15.842Z,98417.66
2023-02-27T11:18:45.403Z,98404.00
2023-02-27T11:21:21.445Z,98409.56
2023-02-27T11:23:57.198Z,98419.88
2023-02-27T11:26:33.544Z,98399.41
2023-02-27T11:29:15.075Z,98394.94
2023-02-27T11:31:50.108Z,98409.50
2023-02-27T11:34:34.125Z,98415.72
2023-02-27T11:37:05.659Z,98406.72
2023-02-27T11:39:38.340Z,98392.69
2023-02-27T11:42:20.427Z,98394.75
2023-02-27T11:45:03.574Z,98379.75
2023-02-27T11:47:36.309Z,98366.88
2023-02-27T11:50:35.468Z,98372.22
2023-02-27T11:53:22.555Z,98365.09
2023-02-27T11:55:57.244Z,98396.84
2023-02-27T11:58:30.515Z,98396.66
2023-02-27T12:01:10.733Z,98377.44
2023-02-27T12:03:48.840Z,98361.78
2023-02-27T12:06:27.016Z,98375.72
2023-02-27T12:09:01.864Z,98384.53
2023-02-27T12:11:37.218Z,98385.44
2023-02-27T12:14:17.478Z,98377.84
2023-02-27T12:16:52.330Z,98395.69
2023-02-27T12:19:27.697Z,98409.06
2023-02-27T12:22:01.188Z,98398.16
2023-02-27T12:24:35.288Z,98398.69
2023-02-27T12:27:14.928Z,98371.31
2023-02-27T12:29:49.703Z,98375.22
2023-02-27T12:32:25.244Z,98355.44
2023-02-27T12:34:56.922Z,98360.63
2023-02-27T12:37:28.081Z,98380.44
2023-02-27T12:40:00.049Z,98377.16
2023-02-27T12:42:49.595Z,98374.56
2023-02-27T12:45:54.763Z,98373.78
2023-02-27T12:48:37.163Z,98369.16
2023-02-27T12:51:19.928Z,98377.72
2023-02-27T12:54:12.270Z,98374.75
2023-02-27T12:56:52.464Z,98384.22
2023-02-27T12:59:35.880Z,98376.59
2023-02-27T13:02:20.041Z,98377.66
2023-02-27T13:05:01.467Z,98396.69
2023-02-27T13:07:36.431Z,98363.31
2023-02-27T13:10:12.740Z,98383.94
2023-02-27T13:12:46.684Z,98377.78
2023-02-27T13:15:19.828Z,98357.19
2023-02-27T13:17:52.516Z,98376.72
2023-02-27T13:20:40.646Z,98371.44
2023-02-27T13:23:20.499Z,98372.66
2023-02-27T13:25:52.248Z,98378.84
2023-02-27T13:28:26.785Z,98346.09
2023-02-27T13:31:08.473Z,98366.34
2023-02-27T13:33:44.057Z,98372.66
2023-02-27T13:36:18.113Z,98383.47
2023-02-27T13:38:48.319Z,98386.63
2023-02-27T13:41:39.027Z,98380.22
2023-02-27T13:44:46.980Z,98387.56
2023-02-27T13:47:40.826Z,98368.38
2023-02-27T13:50:46.894Z,98376.97
2023-02-27T13:53:20.793Z,98386.22
2023-02-27T13:55:49.600Z,98372.91
2023-02-27T13:58:24.651Z,98372.75
2023-02-27T14:01:00.439Z,98376.88
2023-02-27T14:03:32.840Z,98364.63
2023-02-27T14:06:07.467Z,98364.75
2023-02-27T14:08:50.508Z,98370.91
2023-02-27T14:11:24.400Z,98364.38
2023-02-27T14:14:08.102Z,98363.41
2023-02-27T14:17:07.569Z,98367.03
2023-02-27T14:19:50.405Z,98364.06
2023-02-27T14:23:09.091Z,98354.84
2023-02-27T14:25:43.146Z,98361.41
2023-02-27T14:28:23.635Z,98362.63
2023-02-27T14:30:58.948Z,98368.50
2023-02-27T14:33:40.077Z,98382.69
2023-02-27T14:36:16.059Z,98368.78
2023-02-27T14:38:45.080Z,98353.09
2023-02-27T14:41:32.916Z,98364.84
2023-02-27T14:44:01.827Z,98374.44
2023-02-27T14:46:32.402Z,98374.84
2023-02-27T14:49:03.491Z,98389.97
2023-02-27T14:51:33.969Z,98378.13
2023-02-27T14:54:05.799Z,98374.06
2023-02-27T14:56:37.989Z,98363.63
2023-02-27T14:59:23.697Z,98366.81
2023-02-27T15:01:53.160Z,98355.78
2023-02-27T15:04:24.426Z,98364.66
2023-02-27T15:06:54.579Z,98368.78
2023-02-27T15:09:26.039Z,98377.19
2023-02-27T15:12:03.958Z,98363.59
2023-02-27T15:14:36.439Z,98377.66
2023-02-27T15:17:05.289Z,98385.16
2023-02-27T15:19:33.874Z,98368.41
2023-02-27T15:22:05.679Z,98376.50
2023-02-27T15:24:49.174Z,98374.44
2023-02-27T15:27:22.628Z,98386.41
2023-02-27T15:29:53.328Z,98385.56
2023-02-27T15:32:29.273Z,98380.44
2023-02-27T15:34:59.130Z,98381.63
2023-02-27T15:37:31.279Z,98385.69
2023-02-27T15:40:01.575Z,98389.53
2023-02-27T15:42:37.119Z,98391.16
2023-02-27T15:45:06.882Z,98390.84
2023-02-27T15:47:37.149Z,98384.22
2023-02-27T15:50:12.906Z,98387.59
2023-02-27T15:52:44.242Z,98385.28
2023-02-27T15:55:15.803Z,98391.47
2023-02-27T15:58:00.682Z,98403.69
2023-02-27T16:00:32.367Z,98404.09
2023-02-27T16:03:01.716Z,98397.59
2023-02-27T16:05:37.367Z,98396.13
2023-02-27T16:08:07.472Z,98405.94
2023-02-27T16:10:38.736Z,98401.09
2023-02-27T16:13:35.485Z,98402.38
2023-02-27T16:16:06.947Z,98407.44
2023-02-27T16:18:38.861Z,98411.78
2023-02-27T16:21:13.406Z,98400.88
2023-02-27T16:23:42.913Z,98405.13
2023-02-27T16:26:28.437Z,98413.13
2023-02-27T16:29:01.373Z,98405.28
2023-02-27T16:31:32.024Z,98418.03
2023-02-27T16:34:02.410Z,98421.34
2023-02-27T16:36:34.356Z,98413.25
2023-02-27T16:39:03.262Z,98419.09
2023-02-27T16:41:31.495Z,98416.84
2023-02-27T16:44:01.767Z,98417.63
2023-02-27T16:46:31.103Z,98425.91
2023-02-27T16:49:14.192Z,98424.44
2023-02-27T16:51:48.310Z,98426.63
2023-02-27T16:54:16.748Z,98427.94
2023-02-27T16:56:47.022Z,98435.75
2023-02-27T16:59:30.792Z,98442.25
2023-02-27T17:02:00.242Z,98444.97
2023-02-27T17:04:30.433Z,98456.88
2023-02-27T17:07:00.927Z,98444.75
2023-02-27T17:09:29.511Z,98453.53
2023-02-27T17:11:58.657Z,98454.66
2023-02-27T17:14:28.661Z,98463.44
2023-02-27T17:16:58.428Z,98458.53
2023-02-27T17:19:27.234Z,98463.47
2023-02-27T17:21:56.637Z,98469.34
2023-02-27T17:24:24.774Z,98464.06
2023-02-27T17:26:53.002Z,98462.88
2023-02-27T17:29:21.778Z,98471.53
2023-02-27T17:31:51.934Z,98483.56
2023-02-27T17:34:20.220Z,98481.75
2023-02-27T17:36:50.661Z,98478.44
2023-02-27T17:39:18.724Z,98477.75
2023-02-27T17:41:47.720Z,98476.75
2023-02-27T17:44:16.726Z,98470.66
2023-02-27T17:46:44.872Z,98488.13
2023-02-27T17:49:14.471Z,98481.22
2023-02-27T17:51:43.334Z,98481.69
2023-02-27T17:54:11.413Z,98476.94
2023-02-27T17:56:40.544Z,98494.47
2023-02-27T17:59:08.919Z,98493.25
2023-02-27T18:01:37.275Z,98492.50
2023-02-27T18:04:07.573Z,98493.50
2023-02-27T18:06:37.707Z,98495.06
2023-02-27T18:09:06.978Z,98504.72
2023-02-27T18:11:37.919Z,98498.41
2023-02-27T18:14:06.814Z,98499.47
2023-02-27T18:16:35.620Z,98502.59
2023-02-27T18:19:04.814Z,98500.31
2023-02-27T18:21:33.789Z,98500.53
2023-02-27T18:24:04.586Z,98502.81
2023-02-27T18:26:35.000Z,98504.81
2023-02-27T18:29:06.388Z,98498.91
2023-02-27T18:31:37.782Z,98508.97
2023-02-27T18:34:06.783Z,98510.75
2023-02-27T18:36:35.608Z,98500.44
2023-02-27T18:39:06.543Z,98507.13
2023-02-27T18:41:35.761Z,98511.53
2023-02-27T18:44:04.561Z,98511.19
2023-02-27T18:46:33.318Z,98513.53
2023-02-27T18:49:01.676Z,98514.41
2023-02-27T18:51:30.375Z,98507.56
2023-02-27T18:54:00.141Z,98511.19
2023-02-27T18:56:33.241Z,98527.38
2023-02-27T18:59:05.532Z,98518.50
2023-02-27T19:01:36.287Z,98522.09
2023-02-27T19:04:06.430Z,98529.16
2023-02-27T19:06:37.114Z,98524.44
2023-02-27T19:09:06.608Z,98519.84
2023-02-27T19:11:36.105Z,98515.88
2023-02-27T19:14:06.842Z,98512.97
2023-02-27T19:16:35.737Z,98520.66
2023-02-27T19:19:05.799Z,98518.72
2023-02-27T19:21:35.604Z,98521.41
2023-02-27T19:24:04.405Z,98510.63
2023-02-27T19:26:35.207Z,98510.84
2023-02-27T19:29:03.778Z,98512.75
2023-02-27T19:31:32.684Z,98511.91
2023-02-27T19:34:00.723Z,98515.81
2023-02-27T19:36:31.292Z,98516.81
2023-02-27T19:38:59.884Z,98512.34
2023-02-27T19:41:28.824Z,98510.28
2023-02-27T19:43:58.614Z,98511.91
2023-02-27T19:46:29.889Z,98522.81
2023-02-27T19:49:02.060Z,98507.50
2023-02-27T19:51:29.992Z,98523.63
2023-02-27T19:53:57.920Z,98527.69
2023-02-27T19:56:27.732Z,98526.88
2023-02-27T19:58:57.814Z,98536.72
2023-02-27T20:01:28.302Z,98533.06
2023-02-27T20:03:59.284Z,98536.09
2023-02-27T20:06:29.943Z,98518.13
2023-02-27T20:08:59.734Z,98536.53
2023-02-27T20:11:32.900Z,98529.59
2023-02-27T20:14:02.788Z,98540.03
2023-02-27T20:16:34.892Z,98536.09
2023-02-27T20:19:03.741Z,98538.16
2023-02-27T20:21:33.170Z,98534.94
2023-02-27T20:24:02.178Z,98539.41
2023-02-27T20:26:32.446Z,98533.66
2023-02-27T20:29:04.325Z,98533.88
2023-02-27T20:31:35.338Z,98527.97
2023-02-27T20:34:06.493Z,98534.91
2023-02-27T20:36:35.832Z,98525.69
2023-02-27T20:39:04.693Z,98535.28
2023-02-27T20:41:33.766Z,98528.31
2023-02-27T20:44:03.344Z,98534.41
2023-02-27T20:46:31.256Z,98528.28
2023-02-27T20:49:01.593Z,98534.09
2023-02-27T20:51:31.685Z,98542.34
2023-02-27T20:54:01.678Z,98542.25
2023-02-27T20:56:32.190Z,98527.94
2023-02-27T20:59:02.706Z,98527.25
2023-02-27T21:01:32.982Z,98522.28
2023-02-27T21:04:01.813Z,98531.53
2023-02-27T21:06:30.887Z,98533.00
2023-02-27T21:09:00.107Z,98520.28
2023-02-27T21:11:30.715Z,98526.50
2023-02-27T21:14:01.622Z,98524.28
2023-02-27T21:16:30.896Z,98525.06
2023-02-27T21:18:59.277Z,98530.00
2023-02-27T21:21:30.209Z,98530.47
2023-02-27T21:23:59.794Z,98523.63
2023-02-27T21:26:32.357Z,98526.25
2023-02-27T21:29:05.002Z,98530.13
2023-02-27T21:31:37.071Z,98528.31
2023-02-27T21:34:08.135Z,98529.31
2023-02-27T21:36:38.705Z,98516.69
2023-02-27T21:39:08.386Z,98516.50
2023-02-27T21:41:36.690Z,98515.47
2023-02-27T21:44:08.384Z,98509.38
2023-02-27T21:46:38.588Z,98507.34
2023-02-27T21:49:07.008Z,98521.44
2023-02-27T21:51:41.056Z,98512.84
2023-02-27T21:54:11.576Z,98515.09
2023-02-27T21:56:40.508Z,98510.41
2023-02-27T21:59:08.618Z,98504.84
2023-02-27T22:01:38.711Z,98501.56
2023-02-27T22:04:08.018Z,98493.81
2023-02-27T22:06:37.005Z,98507.69
2023-02-27T22:09:06.676Z,98509.13
2023-02-27T22:11:36.099Z,98502.81
2023-02-27T22:14:06.467Z,98497.88
2023-02-27T22:16:35.150Z,98498.50
2023-02-27T22:19:08.609Z,98497.47
2023-02-27T22:21:37.927Z,98489.69
2023-02-27T22:24:07.227Z,98492.38
2023-02-27T22:26:36.176Z,98491.91
2023-02-27T22:29:07.419Z,98493.00
2023-02-27T22:31:37.926Z,98487.28
2023-02-27T22:34:09.171Z,98486.66
2023-02-27T22:36:38.708Z,98489.75
2023-02-27T22:39:07.338Z,98492.38
2023-02-27T22:41:37.357Z,98485.22
2023-02-27T22:44:06.436Z,98494.22
2023-02-27T22:46:36.951Z,98488.94
2023-02-27T22:49:08.742Z,98489.75
2023-02-27T22:51:37.505Z,98494.44
2023-02-27T22:54:07.174Z,98494.84
2023-02-27T22:56:37.454Z,98493.22
2023-02-27T22:59:06.243Z,98497.94
2023-02-27T23:01:37.790Z,98498.13
2023-02-27T23:04:11.567Z,98500.16
2023-02-27T23:06:43.706Z,98493.59
2023-02-27T23:09:14.800Z,98494.25
2023-02-27T23:11:43.461Z,98506.84
2023-02-27T23:14:11.523Z,98493.16
2023-02-27T23:16:40.093Z,98500.00
2023-02-27T23:19:10.306Z,98502.91
2023-02-27T23:21:40.199Z,98505.94
2023-02-27T23:24:11.905Z,98511.41
2023-02-27T23:26:41.251Z,98507.53
2023-02-27T23:29:10.078Z,98505.66
2023-02-27T23:31:39.438Z,98498.06
2023-02-27T23:34:09.537Z,98513.38
2023-02-27T23:36:39.276Z,98508.09
2023-02-27T23:39:07.997Z,98510.75
2023-02-27T23:41:36.176Z,98515.03
2023-02-27T23:44:04.803Z,98512.38
2023-02-27T23:46:33.164Z,98509.91
2023-02-27T23:49:01.947Z,98518.41
2023-02-27T23:51:32.461Z,98512.94
2023-02-27T23:54:01.044Z,98515.44
2023-02-27T23:56:30.380Z,98520.25
2023-02-27T23:59:00.835Z,98518.03
